createdAt,value
2022-12-23T00:02:23.084Z,7.50
2022-12-23T00:05:19.963Z,7.60
2022-12-23T00:08:17.249Z,7.50
2022-12-23T00:11:19.407Z,7.50
2022-12-23T00:14:34.663Z,7.50
2022-12-23T00:17:43.547Z,7.50
2022-12-23T00:20:40.433Z,7.50
2022-12-23T00:23:40.753Z,7.50
2022-12-23T00:26:37.571Z,7.50
2022-12-23T00:29:34.382Z,7.50
2022-12-23T00:32:31.212Z,7.40
2022-12-23T00:35:32.125Z,7.50
2022-12-23T00:38:47.614Z,7.40
2022-12-23T00:42:03.922Z,7.50
2022-12-23T00:45:15.701Z,7.50
2022-12-23T00:48:31.621Z,7.40
2022-12-23T00:51:28.524Z,7.50
2022-12-23T00:54:25.428Z,7.50
2022-12-23T00:57:22.251Z,7.50
2022-12-23T01:00:19.647Z,7.50
2022-12-23T01:03:35.107Z,7.50
2022-12-23T01:06:32.093Z,7.50
2022-12-23T01:09:28.924Z,7.50
2022-12-23T01:12:25.751Z,7.50
2022-12-23T01:15:22.715Z,7.50
2022-12-23T01:18:19.553Z,7.60
2022-12-23T01:21:16.624Z,7.50
2022-12-23T01:24:13.505Z,7.50
2022-12-23T01:27:10.352Z,7.50
2022-12-23T01:30:08.096Z,7.50
2022-12-23T01:33:05.086Z,7.60
2022-12-23T01:36:07.537Z,7.50
2022-12-23T01:39:04.637Z,7.50
2022-12-23T01:42:20.377Z,7.50
2022-12-23T01:45:30.055Z,7.50
2022-12-23T01:48:27.810Z,7.50
2022-12-23T01:51:29.744Z,7.40
2022-12-23T01:54:26.854Z,7.40
2022-12-23T01:57:24.673Z,7.50
2022-12-23T02:00:39.949Z,7.40
2022-12-23T02:03:43.667Z,7.40
2022-12-23T02:07:01.458Z,7.40
2022-12-23T02:09:58.977Z,7.40
2022-12-23T02:13:21.683Z,7.50
2022-12-23T02:16:18.711Z,7.50
2022-12-23T02:19:44.561Z,7.40
2022-12-23T02:23:28.132Z,7.40
2022-12-23T02:27:11.691Z,7.40
2022-12-23T02:30:45.830Z,7.40
2022-12-23T02:34:01.213Z,7.40
2022-12-23T02:37:05.535Z,7.40
2022-12-23T02:40:13.193Z,7.40
2022-12-23T02:43:40.394Z,7.40
2022-12-23T02:46:51.701Z,7.40
2022-12-23T02:49:55.138Z,7.40
2022-12-23T02:52:53.765Z,7.40
2022-12-23T02:55:53.007Z,7.40
2022-12-23T02:58:58.526Z,7.40
2022-12-23T03:01:55.874Z,7.40
2022-12-23T03:04:52.935Z,7.40
2022-12-23T03:07:50.604Z,7.30
2022-12-23T03:11:05.617Z,7.40
2022-12-23T03:14:36.544Z,7.30
2022-12-23T03:18:02.224Z,7.30
2022-12-23T03:21:16.646Z,7.40
2022-12-23T03:24:54.389Z,7.30
2022-12-23T03:28:22.478Z,7.30
2022-12-23T03:31:27.103Z,7.30
2022-12-23T03:34:30.155Z,7.30
2022-12-23T03:37:30.258Z,7.20
2022-12-23T03:40:34.849Z,7.30
2022-12-23T03:43:50.727Z,7.30
2022-12-23T03:47:00.679Z,7.30
2022-12-23T03:50:06.015Z,7.40
2022-12-23T03:53:15.153Z,7.40
2022-12-23T03:56:38.682Z,7.40
2022-12-23T03:59:41.090Z,7.40
2022-12-23T04:03:02.800Z,7.50
2022-12-23T04:06:02.177Z,7.40
2022-12-23T04:08:59.925Z,7.50
2022-12-23T04:11:58.348Z,7.40
2022-12-23T04:14:55.255Z,7.40
2022-12-23T04:17:54.435Z,7.40
2022-12-23T04:20:51.272Z,7.40
2022-12-23T04:23:48.110Z,7.40
2022-12-23T04:26:45.176Z,7.40
2022-12-23T04:29:42.903Z,7.50
2022-12-23T04:32:40.950Z,7.50
2022-12-23T04:35:37.798Z,7.50
2022-12-23T04:38:34.634Z,7.50
2022-12-23T04:41:31.516Z,7.50
2022-12-23T04:44:28.345Z,7.50
2022-12-23T04:47:25.199Z,7.40
2022-12-23T04:50:22.086Z,7.40
2022-12-23T04:53:18.915Z,7.40
2022-12-23T04:56:15.732Z,7.40
2022-12-23T04:59:12.649Z,7.40
2022-12-23T05:02:10.006Z,7.40
2022-12-23T05:05:07.283Z,7.30
2022-12-23T05:08:06.577Z,7.40
2022-12-23T05:11:03.929Z,7.50
2022-12-23T05:14:00.756Z,7.40
2022-12-23T05:17:00.889Z,7.50
2022-12-23T05:20:02.167Z,7.50
2022-12-23T05:22:58.993Z,7.50
2022-12-23T05:25:55.884Z,7.50
2022-12-23T05:28:52.713Z,7.50
2022-12-23T05:31:49.615Z,7.50
2022-12-23T05:34:46.913Z,7.50
2022-12-23T05:37:44.025Z,7.40
2022-12-23T05:40:41.121Z,7.40
2022-12-23T05:43:38.208Z,7.50
2022-12-23T05:46:35.187Z,7.50
2022-12-23T05:49:32.014Z,7.40
2022-12-23T05:52:28.921Z,7.40
2022-12-23T05:55:27.189Z,7.40
2022-12-23T05:58:24.353Z,7.50
2022-12-23T06:01:21.165Z,7.50
2022-12-23T06:04:18.084Z,7.40
2022-12-23T06:07:15.302Z,7.40
2022-12-23T06:10:12.314Z,7.40
2022-12-23T06:13:09.372Z,7.40
2022-12-23T06:16:06.703Z,7.40
2022-12-23T06:19:03.925Z,7.40
2022-12-23T06:22:00.784Z,7.40
2022-12-23T06:24:57.774Z,7.40
2022-12-23T06:27:54.672Z,7.40
2022-12-23T06:30:56.113Z,7.40
2022-12-23T06:33:52.952Z,7.50
2022-12-23T06:36:49.799Z,7.50
2022-12-23T06:39:46.690Z,7.50
2022-12-23T06:42:43.521Z,7.40
2022-12-23T06:45:41.416Z,7.40
2022-12-23T06:48:38.362Z,7.40
2022-12-23T06:51:35.360Z,7.40
2022-12-23T06:54:32.204Z,7.50
2022-12-23T06:57:29.035Z,7.50
2022-12-23T07:00:25.860Z,7.50
2022-12-23T07:03:23.012Z,7.40
2022-12-23T07:06:19.906Z,7.40
2022-12-23T07:09:16.776Z,7.40
2022-12-23T07:12:13.688Z,7.40
2022-12-23T07:15:11.144Z,7.40
2022-12-23T07:18:08.339Z,7.40
2022-12-23T07:21:07.913Z,7.40
2022-12-23T07:24:10.689Z,7.40
2022-12-23T07:27:07.521Z,7.40
2022-12-23T07:30:08.350Z,7.40
2022-12-23T07:33:05.285Z,7.40
2022-12-23T07:36:02.120Z,7.50
2022-12-23T07:38:58.962Z,7.50
2022-12-23T07:42:09.340Z,7.60
2022-12-23T07:45:12.680Z,7.50
2022-12-23T07:48:09.793Z,7.50
2022-12-23T07:51:06.644Z,7.50
2022-12-23T07:54:03.640Z,7.50
2022-12-23T07:57:00.632Z,7.40
2022-12-23T08:00:00.590Z,7.40
2022-12-23T08:02:57.870Z,7.40
2022-12-23T08:06:07.663Z,7.50
2022-12-23T08:09:06.621Z,7.50
2022-12-23T08:12:03.654Z,7.50
2022-12-23T08:15:00.589Z,7.40
2022-12-23T08:17:57.477Z,7.40
2022-12-23T08:20:58.799Z,7.30
2022-12-23T08:23:55.632Z,7.30
2022-12-23T08:26:52.479Z,7.40
2022-12-23T08:29:49.297Z,7.40
2022-12-23T08:32:46.163Z,7.40
2022-12-23T08:35:42.991Z,7.50
2022-12-23T08:38:39.878Z,7.50
2022-12-23T08:41:43.624Z,7.60
2022-12-23T08:44:40.446Z,7.70
2022-12-23T08:47:37.296Z,7.60
2022-12-23T08:50:43.386Z,7.60
2022-12-23T08:53:41.260Z,7.70
2022-12-23T08:56:42.391Z,7.70
2022-12-23T08:59:39.481Z,7.60
2022-12-23T09:02:36.532Z,7.70
2022-12-23T09:05:33.742Z,7.70
2022-12-23T09:08:30.576Z,7.70
2022-12-23T09:11:29.935Z,7.80
2022-12-23T09:14:26.817Z,7.80
2022-12-23T09:17:23.704Z,7.70
2022-12-23T09:20:21.000Z,7.70
2022-12-23T09:23:17.874Z,7.70
2022-12-23T09:26:24.888Z,7.80
2022-12-23T09:29:21.832Z,7.80
2022-12-23T09:32:19.258Z,7.90
2022-12-23T09:35:16.308Z,7.90
2022-12-23T09:38:13.326Z,8.00
2022-12-23T09:41:40.464Z,7.90
2022-12-23T09:45:13.822Z,7.90
2022-12-23T09:48:17.410Z,7.90
2022-12-23T09:51:15.958Z,7.90
2022-12-23T09:54:29.709Z,7.90
2022-12-23T09:57:44.449Z,7.90
2022-12-23T10:01:00.382Z,7.90
2022-12-23T10:04:26.375Z,7.90
2022-12-23T10:07:51.051Z,7.80
2022-12-23T10:11:18.701Z,7.80
2022-12-23T10:14:31.994Z,7.80
2022-12-23T10:17:41.665Z,7.90
2022-12-23T10:20:53.209Z,7.80
2022-12-23T10:23:54.239Z,7.90
2022-12-23T10:27:02.672Z,7.90
2022-12-23T10:30:34.265Z,7.90
2022-12-23T10:33:46.710Z,7.90
2022-12-23T10:37:09.706Z,7.90
2022-12-23T10:40:33.985Z,8.00
2022-12-23T10:43:46.931Z,8.00
2022-12-23T10:47:06.374Z,7.90
2022-12-23T10:50:19.411Z,7.90
2022-12-23T10:54:07.389Z,7.90
2022-12-23T10:57:06.542Z,8.00
2022-12-23T11:00:20.667Z,7.90
2022-12-23T11:03:24.413Z,7.90
2022-12-23T11:06:22.384Z,7.90
2022-12-23T11:09:25.079Z,7.90
2022-12-23T11:12:42.159Z,7.90
2022-12-23T11:15:41.525Z,8.10
2022-12-23T11:18:42.015Z,8.10
2022-12-23T11:21:52.552Z,8.20
2022-12-23T11:24:49.435Z,8.20
2022-12-23T11:27:46.737Z,8.30
2022-12-23T11:31:28.059Z,8.30
2022-12-23T11:34:27.125Z,8.40
2022-12-23T11:37:41.913Z,8.40
2022-12-23T11:40:39.790Z,8.30
2022-12-23T11:43:39.413Z,8.30
2022-12-23T11:46:36.321Z,8.40
2022-12-23T11:49:33.756Z,8.30
2022-12-23T11:52:33.429Z,8.30
2022-12-23T11:55:35.017Z,8.30
2022-12-23T11:58:45.207Z,8.30
2022-12-23T12:01:48.666Z,8.30
2022-12-23T12:05:06.611Z,8.20
2022-12-23T12:08:13.341Z,8.20
2022-12-23T12:11:26.803Z,8.20
2022-12-23T12:14:32.362Z,8.30
2022-12-23T12:17:46.988Z,8.30
2022-12-23T12:20:53.333Z,8.20
2022-12-23T12:24:08.187Z,8.30
2022-12-23T12:27:11.900Z,8.40
2022-12-23T12:30:18.906Z,8.40
2022-12-23T12:33:34.830Z,8.30
2022-12-23T12:36:56.181Z,8.30
2022-12-23T12:40:22.743Z,8.30
2022-12-23T12:43:31.651Z,8.40
2022-12-23T12:46:42.447Z,8.40
2022-12-23T12:49:48.441Z,8.30
2022-12-23T12:52:46.314Z,8.30
2022-12-23T12:55:50.327Z,8.30
2022-12-23T12:58:47.169Z,8.30
2022-12-23T13:02:05.255Z,8.30
2022-12-23T13:05:54.383Z,8.20
2022-12-23T13:09:07.477Z,8.40
2022-12-23T13:12:43.133Z,8.40
2022-12-23T13:16:10.493Z,8.40
2022-12-23T13:19:33.411Z,8.30
2022-12-23T13:22:34.257Z,8.30
2022-12-23T13:25:39.655Z,8.20
2022-12-23T13:29:03.068Z,8.20
2022-12-23T13:32:36.910Z,8.20
2022-12-23T13:35:36.426Z,8.10
2022-12-23T13:39:04.436Z,8.10
2022-12-23T13:42:05.926Z,8.20
2022-12-23T13:45:04.751Z,8.10
2022-12-23T13:48:28.023Z,8.00
2022-12-23T13:51:58.793Z,8.10
2022-12-23T13:55:24.737Z,8.00
2022-12-23T13:58:28.325Z,8.10
2022-12-23T14:01:40.163Z,8.20
2022-12-23T14:04:59.100Z,8.10
2022-12-23T14:08:01.475Z,8.10
2022-12-23T14:11:18.157Z,8.00
2022-12-23T14:14:23.377Z,8.00
2022-12-23T14:17:39.065Z,8.00
2022-12-23T14:20:57.138Z,7.90
2022-12-23T14:24:29.009Z,7.80
2022-12-23T14:28:02.464Z,7.70
2022-12-23T14:30:59.536Z,7.80
2022-12-23T14:34:20.037Z,7.80
2022-12-23T14:37:25.312Z,7.80
2022-12-23T14:40:37.469Z,7.70
2022-12-23T14:43:46.482Z,7.80
2022-12-23T14:46:43.238Z,7.70
2022-12-23T14:49:43.999Z,7.80
2022-12-23T14:53:01.410Z,7.70
2022-12-23T14:56:24.110Z,7.70
2022-12-23T15:00:01.136Z,7.80
2022-12-23T15:03:00.822Z,7.80
2022-12-23T15:06:03.080Z,7.90
2022-12-23T15:09:01.446Z,7.90
2022-12-23T15:12:04.873Z,7.90
2022-12-23T15:15:14.360Z,7.90
2022-12-23T15:18:13.155Z,7.80
2022-12-23T15:21:13.097Z,7.90
2022-12-23T15:24:20.720Z,7.90
2022-12-23T15:27:28.898Z,7.80
2022-12-23T15:30:29.632Z,7.80
2022-12-23T15:36:48.080Z,7.80
2022-12-23T15:39:45.146Z,7.80
2022-12-23T15:42:48.715Z,7.90
2022-12-23T15:45:45.988Z,7.90
2022-12-23T15:48:43.290Z,7.80
2022-12-23T15:52:07.031Z,7.80
2022-12-23T15:55:22.816Z,7.70
2022-12-23T15:58:24.576Z,7.70
2022-12-23T16:01:22.400Z,7.80
2022-12-23T16:04:25.707Z,7.90
2022-12-23T16:07:26.653Z,7.90
2022-12-23T16:10:23.412Z,7.90
2022-12-23T16:13:21.033Z,7.90
2022-12-23T16:16:29.135Z,7.90
2022-12-23T16:19:48.121Z,7.80
2022-12-23T16:22:45.312Z,7.80
2022-12-23T16:25:50.715Z,7.80
2022-12-23T16:28:52.434Z,7.80
2022-12-23T16:31:54.432Z,7.80
2022-12-23T16:34:56.084Z,7.80
2022-12-23T16:38:14.966Z,7.70
2022-12-23T16:41:12.420Z,7.80
2022-12-23T16:44:09.468Z,7.80
2022-12-23T16:47:15.437Z,7.70
2022-12-23T16:50:14.847Z,7.70
2022-12-23T16:53:13.617Z,7.90
2022-12-23T16:56:22.130Z,7.90
2022-12-23T16:59:19.814Z,7.80
2022-12-23T17:02:23.565Z,7.70
2022-12-23T17:05:25.007Z,7.70
2022-12-23T17:08:21.883Z,7.80
2022-12-23T17:11:38.117Z,7.80
2022-12-23T17:14:34.960Z,7.80
2022-12-23T17:17:31.806Z,7.80
2022-12-23T17:20:28.699Z,7.90
2022-12-23T17:23:32.412Z,7.90
2022-12-23T17:26:29.221Z,7.90
2022-12-23T17:29:26.116Z,7.90
2022-12-23T17:32:23.582Z,7.90
2022-12-23T17:35:20.889Z,7.90
2022-12-23T17:38:17.743Z,8.00
2022-12-23T17:41:29.181Z,8.20
2022-12-23T17:44:26.042Z,8.10
2022-12-23T17:47:23.323Z,8.10
2022-12-23T17:50:20.812Z,8.10
2022-12-23T17:53:19.736Z,8.00
2022-12-23T17:56:20.177Z,8.10
2022-12-23T17:59:17.123Z,8.20
2022-12-23T18:02:23.175Z,8.20
2022-12-23T18:05:23.095Z,8.30
2022-12-23T18:08:19.919Z,8.30
2022-12-23T18:11:27.419Z,8.20
2022-12-23T18:14:28.045Z,8.20
2022-12-23T18:17:24.964Z,8.20
2022-12-23T18:20:24.059Z,8.30
2022-12-23T18:23:29.284Z,8.20
2022-12-23T18:26:26.477Z,8.20
2022-12-23T18:29:23.303Z,8.20
2022-12-23T18:32:25.084Z,8.30
2022-12-23T18:35:39.601Z,8.40
2022-12-23T18:38:36.465Z,8.40
2022-12-23T18:41:33.275Z,8.40
2022-12-23T18:44:30.133Z,8.40
2022-12-23T18:47:26.992Z,8.40
2022-12-23T18:50:24.958Z,8.40
2022-12-23T18:53:24.990Z,8.40
2022-12-23T18:56:22.693Z,8.50
2022-12-23T18:59:29.319Z,8.50
2022-12-23T19:02:26.599Z,8.40
2022-12-23T19:05:29.825Z,8.40
2022-12-23T19:08:27.867Z,8.40
2022-12-23T19:11:24.957Z,8.40
2022-12-23T19:14:22.031Z,8.30
2022-12-23T19:17:18.911Z,8.40
2022-12-23T19:20:18.068Z,8.40
2022-12-23T19:23:15.733Z,8.40
2022-12-23T19:26:14.394Z,8.50
2022-12-23T19:29:11.247Z,8.40
2022-12-23T19:32:08.093Z,8.40
2022-12-23T19:35:05.432Z,8.60
2022-12-23T19:38:02.390Z,8.60
2022-12-23T19:40:59.267Z,8.50
2022-12-23T19:43:56.263Z,8.60
2022-12-23T19:46:53.258Z,8.50
2022-12-23T19:49:50.257Z,8.50
2022-12-23T19:52:47.091Z,8.70
2022-12-23T19:55:43.911Z,8.60
2022-12-23T19:58:43.771Z,8.60
2022-12-23T20:01:40.724Z,8.70
2022-12-23T20:04:38.762Z,8.70
2022-12-23T20:07:36.316Z,8.70
2022-12-23T20:10:33.118Z,8.80
2022-12-23T20:13:29.976Z,8.80
2022-12-23T20:16:28.792Z,8.70
2022-12-23T20:19:25.880Z,8.70
2022-12-23T20:22:22.730Z,8.80
2022-12-23T20:25:19.574Z,8.70
2022-12-23T20:28:16.662Z,8.80
2022-12-23T20:31:16.853Z,8.70
2022-12-23T20:34:17.455Z,8.90
2022-12-23T20:37:15.786Z,8.80
2022-12-23T20:40:14.532Z,8.90
2022-12-23T20:43:15.313Z,9.00
2022-12-23T20:46:14.656Z,8.90
2022-12-23T20:49:11.515Z,9.00
2022-12-23T20:52:08.437Z,8.90
2022-12-23T20:55:06.548Z,8.90
2022-12-23T20:58:23.368Z,8.80
2022-12-23T21:01:21.864Z,8.90
2022-12-23T21:04:18.816Z,8.80
2022-12-23T21:07:15.656Z,8.70
2022-12-23T21:10:12.504Z,8.70
2022-12-23T21:13:09.347Z,8.70
2022-12-23T21:16:12.869Z,8.60
2022-12-23T21:19:19.619Z,8.60
2022-12-23T21:22:16.524Z,8.60
2022-12-23T21:25:13.363Z,8.50
2022-12-23T21:28:10.201Z,8.40
2022-12-23T21:31:07.982Z,8.40
2022-12-23T21:34:05.481Z,8.40
2022-12-23T21:37:02.382Z,8.50
2022-12-23T21:39:59.284Z,8.60
2022-12-23T21:42:56.108Z,8.50
2022-12-23T21:46:15.121Z,8.70
2022-12-23T21:49:12.083Z,8.80
2022-12-23T21:52:08.918Z,8.80
2022-12-23T21:55:05.910Z,8.80
2022-12-23T21:58:02.753Z,8.70
2022-12-23T22:00:59.996Z,8.70
2022-12-23T22:03:57.689Z,8.70
2022-12-23T22:06:54.509Z,8.70
2022-12-23T22:09:51.354Z,8.60
2022-12-23T22:12:48.178Z,8.60
2022-12-23T22:15:45.024Z,8.60
2022-12-23T22:18:42.199Z,8.60
2022-12-23T22:21:39.872Z,8.70
2022-12-23T22:24:36.840Z,8.60
2022-12-23T22:27:33.820Z,8.70
2022-12-23T22:30:30.626Z,8.70
2022-12-23T22:33:27.451Z,8.80
2022-12-23T22:36:24.485Z,8.70
2022-12-23T22:39:21.954Z,8.60
2022-12-23T22:42:18.961Z,8.70
2022-12-23T22:45:15.831Z,8.60
2022-12-23T22:48:13.493Z,8.70
2022-12-23T22:51:20.781Z,8.60
2022-12-23T22:54:17.601Z,8.60
2022-12-23T22:57:14.457Z,8.70
2022-12-23T23:00:12.804Z,8.60
2022-12-23T23:03:10.207Z,8.60
2022-12-23T23:06:07.513Z,8.50
2022-12-23T23:09:12.238Z,8.60
2022-12-23T23:12:09.155Z,8.60
2022-12-23T23:15:06.904Z,8.60
2022-12-23T23:18:03.788Z,8.60
2022-12-23T23:21:00.853Z,8.60
2022-12-23T23:23:57.754Z,8.50
2022-12-23T23:26:54.583Z,8.50
2022-12-23T23:29:51.416Z,8.50
2022-12-23T23:32:48.404Z,8.50
2022-12-23T23:35:45.443Z,8.50
2022-12-23T23:38:42.268Z,8.60
2022-12-23T23:41:39.070Z,8.50
2022-12-23T23:44:36.275Z,8.40
2022-12-23T23:47:34.808Z,8.50
2022-12-23T23:50:31.864Z,8.50
2022-12-23T23:53:28.739Z,8.50
2022-12-23T23:56:27.302Z,8.60
2022-12-23T23:59:25.610Z,8.50
